Terminal Aerodrome Forecast
Issued by NWS

Home | Current Version | Previous Version | Graphics & Text | Print | Product List | Glossary On
Versions: 1 2 3 4 5 6 7 8 9 10 11 12 13 14 15 16
000
FTUS43 KBIS 170500
TAFMOT
TAF
KMOT 170535Z 1706/1806 32018G28KT P6SM SCT015 OVC020
     FM171200 33012KT P6SM OVC015
     FM171800 35009KT P6SM BKN015
     FM180000 04006KT P6SM BKN025
     FM180300 10006KT P6SM SCT025=

USA.gov is the U.S. government's official web portal to all federal, state and local government web resources and services.